Time;durP1;ratioP1;P1;durP2;ratioP2;P2;SDS_P1;SDS_P2;PMS_P1;PMS_P2;Temp;Humidity;BMP_temperature;BMP_pressure;BME280_temperature;BME280_humidity;BME280_pressure;Samples;Min_cycle;Max_cycle;Signal;HPM_P1;HPM_P2
2022/03/28 00:01:55;;;;;;;36.03;7.88;;;7.00;99.90;;;;;;5043167;28;20060;-55
2022/03/28 00:04:22;;;;;;;18.80;8.70;;;7.00;99.90;;;;;;5040544;28;20053;-56
2022/03/28 00:06:48;;;;;;;22.67;9.18;;;7.00;99.90;;;;;;5038725;28;20056;-56
2022/03/28 00:09:14;;;;;;;24.25;9.43;;;7.00;99.90;;;;;;5052320;28;20487;-56
2022/03/28 00:11:41;;;;;;;18.92;8.98;;;7.00;99.90;;;;;;5047505;28;20041;-56
2022/03/28 00:14:07;;;;;;;20.45;8.25;;;7.00;99.90;;;;;;5044686;28;20041;-56
2022/03/28 00:16:33;;;;;;;20.58;8.48;;;7.00;99.90;;;;;;5039484;28;20056;-56
2022/03/28 00:18:59;;;;;;;17.88;7.97;;;6.90;99.90;;;;;;5048544;28;20048;-56
2022/03/28 00:21:26;;;;;;;29.83;9.77;;;6.90;99.90;;;;;;5052181;28;20037;-56
2022/03/28 00:23:52;;;;;;;21.77;8.48;;;6.90;99.90;;;;;;5041190;28;20048;-56
2022/03/28 00:26:19;;;;;;;27.70;8.18;;;6.90;99.90;;;;;;5049308;28;20049;-56
2022/03/28 00:28:45;;;;;;;21.05;8.45;;;6.90;99.90;;;;;;5039427;28;20493;-56
2022/03/28 00:31:11;;;;;;;24.48;7.95;;;6.80;99.90;;;;;;5027486;28;20053;-56
2022/03/28 00:33:38;;;;;;;21.65;8.23;;;6.70;99.90;;;;;;5037176;28;20071;-56
2022/03/28 00:36:05;;;;;;;14.10;7.68;;;6.80;99.90;;;;;;5048803;28;20049;-56
2022/03/28 00:38:31;;;;;;;30.05;8.90;;;6.80;99.90;;;;;;5059759;28;20378;-56
2022/03/28 00:40:57;;;;;;;15.55;8.40;;;6.80;99.90;;;;;;5039404;28;20041;-56
2022/03/28 00:43:23;;;;;;;35.03;8.63;;;6.80;99.90;;;;;;5023332;28;20056;-57
2022/03/28 00:45:49;;;;;;;18.00;8.00;;;6.70;99.90;;;;;;5041724;28;20162;-56
2022/03/28 00:48:15;;;;;;;21.83;8.95;;;6.70;99.90;;;;;;5048129;28;20036;-57
2022/03/28 00:50:42;;;;;;;22.55;7.60;;;6.70;99.90;;;;;;5030692;28;20053;-56
2022/03/28 00:53:11;;;;;;;24.77;8.30;;;6.80;99.90;;;;;;5041160;28;20122;-56
2022/03/28 00:55:38;;;;;;;25.58;8.32;;;6.70;99.90;;;;;;5017888;28;20068;-56
2022/03/28 00:58:04;;;;;;;31.80;9.90;;;6.60;99.90;;;;;;5046641;28;20041;-56
2022/03/28 01:00:31;;;;;;;27.63;10.05;;;6.60;99.90;;;;;;5030893;28;20147;-56
2022/03/28 01:02:57;;;;;;;33.72;10.35;;;6.60;99.90;;;;;;5049681;28;20053;-57
2022/03/28 01:05:26;;;;;;;22.23;10.77;;;6.60;99.90;;;;;;5046205;28;20048;-56
2022/03/28 01:07:53;;;;;;;22.58;9.43;;;6.60;99.90;;;;;;5039308;28;20045;-54
2022/03/28 01:10:19;;;;;;;20.63;9.77;;;6.60;99.90;;;;;;5051251;28;20110;-56
2022/03/28 01:12:45;;;;;;;30.15;9.98;;;6.60;99.90;;;;;;5024212;28;20463;-55
2022/03/28 01:15:14;;;;;;;24.63;10.05;;;6.60;99.90;;;;;;5034874;28;20504;-56
2022/03/28 01:20:31;;;;;;;23.27;10.07;;;6.60;99.90;;;;;;5043436;28;20507;-56
2022/03/28 01:22:58;;;;;;;21.75;11.20;;;6.60;99.90;;;;;;5028577;28;20114;-55
2022/03/28 01:25:25;;;;;;;30.75;10.50;;;6.60;99.90;;;;;;5057447;28;20098;-56
2022/03/28 01:27:53;;;;;;;36.65;12.20;;;6.60;99.90;;;;;;5047440;28;20162;-56
2022/03/28 01:30:21;;;;;;;33.00;12.00;;;6.60;99.90;;;;;;5030195;28;20049;-56
2022/03/28 01:32:48;;;;;;;23.33;11.43;;;6.60;99.90;;;;;;5030967;28;20049;-56
2022/03/28 01:35:26;;;;;;;31.90;12.23;;;6.60;99.90;;;;;;5042406;28;20049;-56
2022/03/28 01:37:52;;;;;;;34.00;12.48;;;6.50;99.90;;;;;;5034977;28;20414;-56
2022/03/28 01:40:18;;;;;;;46.47;12.38;;;6.50;99.90;;;;;;5053735;28;20161;-56
2022/03/28 01:42:45;;;;;;;33.83;12.15;;;6.50;99.90;;;;;;5029312;28;20141;-56
2022/03/28 01:45:12;;;;;;;41.47;12.55;;;6.60;99.90;;;;;;5031080;28;20053;-55
2022/03/28 01:47:40;;;;;;;33.45;12.05;;;6.60;99.90;;;;;;5045668;28;20086;-55
2022/03/28 01:50:07;;;;;;;44.60;13.20;;;6.50;99.90;;;;;;5046754;28;20036;-56
2022/03/28 01:52:33;;;;;;;59.65;15.15;;;6.60;99.90;;;;;;5057454;28;20515;-56
2022/03/28 01:54:59;;;;;;;32.22;13.73;;;6.60;99.90;;;;;;5032972;28;20056;-56
2022/03/28 01:57:25;;;;;;;30.25;13.25;;;6.60;99.90;;;;;;5052159;28;20362;-56
2022/03/28 01:59:51;;;;;;;47.60;13.77;;;6.60;99.90;;;;;;5022702;28;20049;-56
2022/03/28 02:02:17;;;;;;;48.35;14.52;;;6.70;99.90;;;;;;5046817;28;20492;-56
2022/03/28 02:04:43;;;;;;;41.42;13.88;;;6.70;99.90;;;;;;5040967;28;20119;-56
2022/03/28 02:07:10;;;;;;;34.22;13.88;;;6.60;99.90;;;;;;5025888;28;20057;-56
2022/03/28 02:09:36;;;;;;;42.72;13.63;;;6.60;99.90;;;;;;5038790;28;20467;-55
2022/03/28 02:12:02;;;;;;;32.55;12.57;;;6.60;99.90;;;;;;5055734;28;20578;-56
2022/03/28 02:14:28;;;;;;;47.47;14.43;;;6.60;99.90;;;;;;5042375;28;20332;-57
2022/03/28 02:16:54;;;;;;;49.35;14.73;;;6.60;99.90;;;;;;5028149;28;20053;-55
2022/03/28 02:19:20;;;;;;;38.40;14.50;;;6.60;99.90;;;;;;5029207;28;20064;-57
2022/03/28 02:21:47;;;;;;;47.15;14.15;;;6.70;99.90;;;;;;5038323;28;20056;-57
2022/03/28 02:24:13;;;;;;;48.22;14.95;;;6.60;99.90;;;;;;5022962;28;20049;-55
2022/03/28 02:26:39;;;;;;;38.72;14.30;;;6.50;99.90;;;;;;5049417;28;20053;-55
2022/03/28 02:29:05;;;;;;;86.53;16.35;;;6.60;99.90;;;;;;5032348;28;20064;-56
2022/03/28 02:31:31;;;;;;;52.88;14.30;;;6.60;99.90;;;;;;5041595;28;20049;-56
2022/03/28 02:33:57;;;;;;;70.32;16.73;;;6.60;99.90;;;;;;5025903;28;20531;-56
2022/03/28 02:36:23;;;;;;;45.20;15.90;;;6.60;99.90;;;;;;5048500;28;20570;-56
2022/03/28 02:38:49;;;;;;;70.07;17.40;;;6.60;99.90;;;;;;5024164;28;20044;-56
2022/03/28 02:41:16;;;;;;;58.55;17.98;;;6.50;99.90;;;;;;5041997;28;20439;-55
2022/03/28 02:43:42;;;;;;;61.28;17.70;;;6.50;99.90;;;;;;5040032;28;20532;-56
2022/03/28 02:46:09;;;;;;;77.70;17.42;;;6.50;99.90;;;;;;5014997;28;20052;-56
2022/03/28 02:48:35;;;;;;;79.22;18.13;;;6.60;99.90;;;;;;5048331;28;20102;-57
2022/03/28 02:51:01;;;;;;;84.15;17.38;;;6.50;99.90;;;;;;5042264;28;20086;-56
2022/03/28 02:53:27;;;;;;;90.63;18.38;;;6.50;99.90;;;;;;5022648;28;20061;-57
2022/03/28 02:55:53;;;;;;;86.78;19.38;;;6.50;99.90;;;;;;5041149;28;20045;-56
2022/03/28 02:58:19;;;;;;;71.53;18.92;;;6.50;99.90;;;;;;5044039;28;20052;-56
2022/03/28 03:00:45;;;;;;;141.18;22.65;;;6.50;99.90;;;;;;5032735;28;20498;-55
2022/03/28 03:03:11;;;;;;;113.45;21.33;;;6.50;99.90;;;;;;5030213;28;20045;-55
2022/03/28 03:05:37;;;;;;;70.80;18.10;;;6.50;99.90;;;;;;5041855;28;20508;-56
2022/03/28 03:08:04;;;;;;;95.18;18.85;;;6.60;99.90;;;;;;5013542;28;20136;-56
2022/03/28 03:10:33;;;;;;;76.40;20.50;;;6.60;99.90;;;;;;5044339;28;20045;-57
2022/03/28 03:12:59;;;;;;;79.15;20.58;;;6.60;99.90;;;;;;5039134;28;20119;-56
2022/03/28 03:15:25;;;;;;;41.55;18.50;;;6.60;99.90;;;;;;5033212;28;20048;-56
2022/03/28 03:17:51;;;;;;;50.60;18.05;;;6.60;99.90;;;;;;5038286;28;20054;-56
2022/03/28 03:20:17;;;;;;;91.32;22.17;;;6.60;99.90;;;;;;5044212;28;20072;-56
2022/03/28 03:22:43;;;;;;;65.97;19.13;;;6.60;99.90;;;;;;5052734;28;20041;-56
2022/03/28 03:25:10;;;;;;;51.60;19.20;;;6.50;99.90;;;;;;5037863;28;20052;-56
2022/03/28 03:27:39;;;;;;;98.38;20.00;;;6.50;99.90;;;;;;5053314;28;20518;-57
2022/03/28 03:30:12;;;;;;;81.47;22.05;;;6.50;99.90;;;;;;5031847;28;20044;-56
2022/03/28 03:32:39;;;;;;;63.65;20.10;;;6.50;99.90;;;;;;5036784;28;20378;-55
2022/03/28 03:35:07;;;;;;;95.18;22.40;;;6.60;99.90;;;;;;5038665;28;20045;-56
2022/03/28 03:37:33;;;;;;;63.05;21.67;;;6.50;99.90;;;;;;5047099;28;20519;-53
2022/03/28 03:39:59;;;;;;;56.70;20.30;;;6.50;99.90;;;;;;5062124;28;20497;-56
2022/03/28 03:42:25;;;;;;;108.53;23.92;;;6.60;99.90;;;;;;5041817;28;20586;-56
2022/03/28 03:44:51;;;;;;;81.38;22.27;;;6.60;99.90;;;;;;5040016;28;20045;-55
2022/03/28 03:47:17;;;;;;;66.95;20.52;;;6.60;99.90;;;;;;5039552;28;20038;-54
2022/03/28 03:49:43;;;;;;;73.43;24.33;;;6.60;99.90;;;;;;5038712;28;20044;-55
2022/03/28 03:52:10;;;;;;;69.90;22.95;;;6.60;99.90;;;;;;5047441;28;20113;-57
2022/03/28 03:54:36;;;;;;;66.68;23.50;;;6.70;99.90;;;;;;5039562;28;20053;-56
2022/03/28 03:57:02;;;;;;;80.80;25.00;;;6.70;99.90;;;;;;5047792;28;20756;-56
2022/03/28 03:59:28;;;;;;;75.63;25.33;;;6.70;99.90;;;;;;5042799;28;20059;-55
2022/03/28 04:01:54;;;;;;;67.05;24.23;;;6.70;99.90;;;;;;5037825;28;20071;-55
2022/03/28 04:04:21;;;;;;;52.92;21.48;;;6.70;99.90;;;;;;5050984;28;20057;-56
2022/03/28 04:06:48;;;;;;;55.05;22.45;;;6.70;99.90;;;;;;5024511;28;20132;-56
2022/03/28 04:09:14;;;;;;;62.28;23.73;;;6.60;99.90;;;;;;5064677;28;20126;-56
2022/03/28 04:11:40;;;;;;;44.90;21.27;;;6.60;99.90;;;;;;5063865;28;20061;-54
2022/03/28 04:14:07;;;;;;;52.85;21.05;;;6.70;99.90;;;;;;5041520;28;20048;-55
2022/03/28 04:16:34;;;;;;;51.63;21.73;;;6.70;99.90;;;;;;5024996;28;20045;-56
2022/03/28 04:19:00;;;;;;;69.32;23.90;;;6.60;99.90;;;;;;5055741;28;20067;-55
2022/03/28 04:21:27;;;;;;;45.25;21.00;;;6.60;99.90;;;;;;5044185;28;20417;-55
2022/03/28 04:23:53;;;;;;;52.08;23.02;;;6.60;99.90;;;;;;5037326;28;20044;-56
2022/03/28 04:26:19;;;;;;;63.25;22.27;;;6.60;99.90;;;;;;5026958;28;20045;-55
2022/03/28 04:28:45;;;;;;;41.33;20.90;;;6.70;99.90;;;;;;5050902;28;20079;-56
2022/03/28 04:31:11;;;;;;;80.93;24.55;;;6.60;99.90;;;;;;5054018;28;20727;-56
2022/03/28 04:33:37;;;;;;;43.90;22.48;;;6.60;99.90;;;;;;5041272;28;20074;-57
2022/03/28 04:36:04;;;;;;;40.90;22.45;;;6.60;99.90;;;;;;5035964;28;20056;-57
2022/03/28 04:38:30;;;;;;;29.73;20.33;;;6.60;99.90;;;;;;5047216;28;20049;-58
2022/03/28 04:40:56;;;;;;;37.50;21.50;;;6.60;99.90;;;;;;5053716;28;20041;-56
2022/03/28 04:43:22;;;;;;;53.58;21.08;;;6.60;99.90;;;;;;5059435;28;20091;-57
2022/03/28 04:45:48;;;;;;;47.33;21.20;;;6.50;99.90;;;;;;5044750;28;20771;-57
2022/03/28 04:48:15;;;;;;;66.78;21.88;;;6.50;99.90;;;;;;5044493;28;20064;-55
2022/03/28 04:50:41;;;;;;;33.67;20.88;;;6.40;99.90;;;;;;5057460;28;20052;-57
2022/03/28 04:53:07;;;;;;;44.03;21.55;;;6.40;99.90;;;;;;5043404;28;20043;-55
2022/03/28 04:55:34;;;;;;;37.30;20.05;;;6.50;99.90;;;;;;5030675;28;20137;-56
2022/03/28 04:58:00;;;;;;;55.60;22.23;;;6.40;99.90;;;;;;5035238;28;20080;-54
2022/03/28 05:00:26;;;;;;;27.05;19.67;;;6.40;99.90;;;;;;5050213;28;20057;-56
2022/03/28 05:02:54;;;;;;;32.58;19.10;;;6.40;99.90;;;;;;5038233;28;20048;-56
2022/03/28 05:05:20;;;;;;;33.40;20.35;;;6.40;99.90;;;;;;5044285;28;20413;-56
2022/03/28 05:07:46;;;;;;;42.83;20.35;;;6.40;99.90;;;;;;5056455;28;20545;-56
2022/03/28 05:10:12;;;;;;;29.73;19.38;;;6.30;99.90;;;;;;5038927;28;20044;-57
2022/03/28 05:12:38;;;;;;;28.02;20.45;;;6.30;99.90;;;;;;5044187;28;20040;-56
2022/03/28 05:15:05;;;;;;;28.50;19.90;;;6.30;99.90;;;;;;5020543;28;20477;-56
2022/03/28 05:17:33;;;;;;;30.48;21.80;;;6.30;99.90;;;;;;5056754;28;20461;-56
2022/03/28 05:20:00;;;;;;;32.50;22.73;;;6.30;99.90;;;;;;5027001;28;20385;-56
2022/03/28 05:22:27;;;;;;;32.05;21.48;;;6.20;99.90;;;;;;5040846;28;20463;-56
2022/03/28 05:24:54;;;;;;;33.28;23.20;;;6.30;99.90;;;;;;5038677;28;20541;-55
2022/03/28 05:27:21;;;;;;;33.60;23.20;;;6.20;99.90;;;;;;5041694;28;20049;-56
2022/03/28 05:29:47;;;;;;;31.52;22.13;;;6.20;99.90;;;;;;5040022;28;20561;-57
2022/03/28 05:32:14;;;;;;;26.15;21.05;;;6.20;99.90;;;;;;5041224;28;20072;-56
2022/03/28 05:34:40;;;;;;;31.35;21.80;;;6.20;99.90;;;;;;5038876;28;20512;-57
2022/03/28 05:37:10;;;;;;;31.90;23.60;;;6.20;99.90;;;;;;5058165;28;20633;-57
2022/03/28 05:39:37;;;;;;;28.50;22.02;;;6.20;99.90;;;;;;5036875;28;20052;-56
2022/03/28 05:42:04;;;;;;;30.75;22.88;;;6.20;99.90;;;;;;5043242;28;20060;-57
2022/03/28 05:44:30;;;;;;;29.65;19.92;;;6.20;99.90;;;;;;5014546;28;20063;-56
2022/03/28 05:46:56;;;;;;;29.58;21.17;;;6.30;99.90;;;;;;5038012;28;20053;-56
2022/03/28 05:49:25;;;;;;;29.15;21.05;;;6.20;99.90;;;;;;5049961;28;20052;-56
2022/03/28 05:51:53;;;;;;;24.88;19.23;;;6.30;99.90;;;;;;5024420;28;20083;-56
2022/03/28 05:54:19;;;;;;;26.08;19.23;;;6.20;99.90;;;;;;5037464;28;20045;-56
2022/03/28 05:56:46;;;;;;;22.38;17.42;;;6.20;99.90;;;;;;5040083;28;20055;-54
2022/03/28 05:59:13;;;;;;;25.48;18.17;;;6.10;99.90;;;;;;5015413;28;20061;-56
2022/03/28 06:01:39;;;;;;;22.83;18.27;;;6.10;99.90;;;;;;5053857;28;20442;-56
2022/03/28 06:04:05;;;;;;;25.02;18.35;;;6.20;99.90;;;;;;5023038;28;20471;-56
2022/03/28 06:06:34;;;;;;;27.50;18.50;;;6.10;99.90;;;;;;5049515;28;20044;-56
2022/03/28 06:09:01;;;;;;;22.08;17.65;;;6.10;99.90;;;;;;5017305;28;20126;-56
2022/03/28 06:11:28;;;;;;;28.40;18.33;;;6.10;99.90;;;;;;5050347;28;20487;-57
2022/03/28 06:13:57;;;;;;;26.48;18.38;;;6.10;99.90;;;;;;5053900;28;20044;-56
2022/03/28 06:16:24;;;;;;;26.85;18.38;;;6.20;99.90;;;;;;5030074;28;20049;-56
2022/03/28 06:18:51;;;;;;;36.45;18.33;;;6.20;99.90;;;;;;5029172;28;20041;-57
2022/03/28 06:21:17;;;;;;;24.70;16.83;;;6.20;99.90;;;;;;5036758;28;20319;-56
2022/03/28 06:23:43;;;;;;;23.52;17.48;;;6.20;99.90;;;;;;5023331;28;20258;-56
2022/03/28 06:26:10;;;;;;;26.90;18.00;;;6.30;99.90;;;;;;5040140;28;20049;-55
2022/03/28 06:28:39;;;;;;;30.95;17.92;;;6.30;99.90;;;;;;5043181;28;20037;-56
2022/03/28 06:31:06;;;;;;;24.23;16.55;;;6.30;99.90;;;;;;5028506;28;20044;-56
2022/03/28 06:33:33;;;;;;;31.73;16.48;;;6.30;99.90;;;;;;5042916;28;20049;-56
2022/03/28 06:35:59;;;;;;;31.05;17.10;;;6.30;99.90;;;;;;5045410;28;20049;-56
2022/03/28 06:38:25;;;;;;;30.10;21.77;;;6.30;99.90;;;;;;5043883;28;20041;-57
2022/03/28 06:40:51;;;;;;;23.08;15.10;;;6.30;99.90;;;;;;5044346;28;20056;-52
2022/03/28 06:43:17;;;;;;;22.85;14.30;;;6.30;99.90;;;;;;5056057;28;20048;-57
2022/03/28 06:45:44;;;;;;;23.63;15.30;;;6.30;99.90;;;;;;5042107;28;20132;-57
2022/03/28 06:48:10;;;;;;;33.35;14.40;;;6.30;99.90;;;;;;5027303;28;20049;-56
2022/03/28 06:50:36;;;;;;;26.48;15.73;;;6.30;99.90;;;;;;5043702;28;20045;-56
2022/03/28 06:53:03;;;;;;;21.15;14.55;;;6.30;99.90;;;;;;5041320;28;20048;-56
2022/03/28 06:55:29;;;;;;;20.90;14.32;;;6.30;99.90;;;;;;5044633;28;20055;-56
2022/03/28 06:57:55;;;;;;;29.35;16.10;;;6.40;99.90;;;;;;5045459;28;20625;-56
2022/03/28 07:00:21;;;;;;;23.45;15.52;;;6.40;99.90;;;;;;5043826;28;20553;-57
2022/03/28 07:02:48;;;;;;;24.15;14.60;;;6.40;99.90;;;;;;5059975;28;20048;-56
2022/03/28 07:05:16;;;;;;;22.20;14.35;;;6.50;99.90;;;;;;5040911;28;20053;-56
2022/03/28 07:07:44;;;;;;;25.40;16.05;;;6.40;99.90;;;;;;5041098;28;20052;-56
2022/03/28 07:10:11;;;;;;;21.63;13.93;;;6.50;99.90;;;;;;5043275;28;20051;-56
2022/03/28 07:12:38;;;;;;;22.15;14.98;;;6.50;99.90;;;;;;5045126;28;20049;-56
2022/03/28 07:15:06;;;;;;;21.88;14.60;;;6.60;99.90;;;;;;5045117;28;20045;-57
2022/03/28 07:17:47;;;;;;;27.20;18.65;;;6.50;99.90;;;;;;5060374;28;20107;-55
2022/03/28 07:20:14;;;;;;;24.98;15.57;;;6.50;99.90;;;;;;5027526;28;20438;-56
2022/03/28 07:22:41;;;;;;;24.88;15.85;;;6.50;99.90;;;;;;5042909;28;20375;-56
2022/03/28 07:25:07;;;;;;;22.77;13.50;;;6.60;99.90;;;;;;5044737;28;20128;-56
2022/03/28 07:27:39;;;;;;;19.63;14.13;;;6.60;99.90;;;;;;5009277;28;20558;-56
2022/03/28 07:30:07;;;;;;;21.63;14.73;;;6.60;99.90;;;;;;5059281;28;20044;-57
2022/03/28 07:32:34;;;;;;;23.67;14.52;;;6.60;99.90;;;;;;5042909;28;20303;-57
2022/03/28 07:35:00;;;;;;;26.00;15.02;;;6.60;99.90;;;;;;5042712;28;20052;-56
2022/03/28 07:37:27;;;;;;;22.05;13.13;;;6.50;99.90;;;;;;5043232;28;20183;-56
2022/03/28 07:39:53;;;;;;;20.75;12.70;;;6.50;99.90;;;;;;5044030;28;20052;-57
2022/03/28 07:42:19;;;;;;;20.67;13.10;;;6.60;99.90;;;;;;5044532;28;20075;-56
2022/03/28 07:44:45;;;;;;;18.70;12.48;;;6.60;99.90;;;;;;5040391;28;20118;-57
2022/03/28 07:47:12;;;;;;;22.98;12.95;;;6.70;99.90;;;;;;5043163;28;20049;-56
2022/03/28 07:49:38;;;;;;;17.27;11.45;;;6.70;99.90;;;;;;5023926;28;20045;-56
2022/03/28 07:52:07;;;;;;;32.13;21.73;;;6.70;99.90;;;;;;5026236;28;20449;-56
2022/03/28 07:54:34;;;;;;;24.73;13.90;;;6.70;99.90;;;;;;5039513;28;20481;-57
2022/03/28 07:57:00;;;;;;;26.55;15.52;;;6.80;99.90;;;;;;5041942;28;20051;-56
2022/03/28 07:59:26;;;;;;;25.27;15.18;;;6.80;99.90;;;;;;5059137;28;20119;-58
2022/03/28 08:01:52;;;;;;;25.15;14.77;;;6.80;99.90;;;;;;5043459;28;20120;-56
2022/03/28 08:04:18;;;;;;;24.13;14.60;;;6.80;99.90;;;;;;5043213;28;20041;-56
2022/03/28 08:06:44;;;;;;;24.92;15.88;;;6.80;99.90;;;;;;5042151;28;20052;-56
2022/03/28 08:09:11;;;;;;;23.92;14.27;;;6.80;99.90;;;;;;5042507;28;20041;-57
2022/03/28 08:11:37;;;;;;;25.30;14.48;;;6.80;99.90;;;;;;5026573;28;20638;-56
2022/03/28 08:14:04;;;;;;;25.77;14.05;;;6.90;99.90;;;;;;5043821;28;20041;-58
2022/03/28 08:16:31;;;;;;;23.33;14.25;;;6.90;99.90;;;;;;5043645;28;20094;-56
2022/03/28 08:18:57;;;;;;;21.58;14.23;;;7.00;99.90;;;;;;5026096;28;20384;-57
2022/03/28 08:21:23;;;;;;;18.88;12.30;;;6.90;99.90;;;;;;5042764;28;20459;-56
2022/03/28 08:23:49;;;;;;;20.27;13.40;;;7.00;99.90;;;;;;5043869;28;20667;-56
2022/03/28 08:26:16;;;;;;;18.50;11.32;;;7.00;99.90;;;;;;5040887;28;20093;-56
2022/03/28 08:28:43;;;;;;;19.55;11.20;;;7.10;99.90;;;;;;5041781;28;20478;-56
2022/03/28 08:31:09;;;;;;;13.23;8.30;;;7.20;99.90;;;;;;5043564;28;20119;-56
2022/03/28 08:33:35;;;;;;;12.27;8.82;;;7.10;99.90;;;;;;5043493;28;20056;-57
2022/03/28 08:36:02;;;;;;;12.55;7.97;;;7.30;99.90;;;;;;5042354;28;20055;-57
2022/03/28 08:38:28;;;;;;;12.50;8.00;;;7.30;99.90;;;;;;5043308;28;20044;-57
2022/03/28 08:40:55;;;;;;;12.80;7.53;;;7.40;99.90;;;;;;5042137;28;20033;-56
2022/03/28 08:43:22;;;;;;;8.60;5.93;;;7.40;99.90;;;;;;5025515;28;20088;-56
2022/03/28 08:45:50;;;;;;;9.60;5.57;;;7.60;99.90;;;;;;5043129;28;20654;-55
2022/03/28 08:48:17;;;;;;;8.45;5.82;;;7.70;99.90;;;;;;5043068;28;20049;-56
2022/03/28 08:50:49;;;;;;;9.05;5.93;;;7.70;99.90;;;;;;5041748;28;20045;-56
2022/03/28 08:53:16;;;;;;;9.85;6.15;;;7.90;99.90;;;;;;5041319;28;20049;-57
2022/03/28 08:55:44;;;;;;;8.00;5.70;;;7.90;99.90;;;;;;5042269;28;20136;-57
2022/03/28 08:58:11;;;;;;;8.20;5.70;;;8.10;99.90;;;;;;5041607;28;20390;-57
2022/03/28 09:00:38;;;;;;;8.07;6.03;;;8.30;99.90;;;;;;5041256;28;20132;-57
2022/03/28 09:03:05;;;;;;;8.27;5.88;;;8.20;99.90;;;;;;5042899;28;20504;-56
2022/03/28 09:05:36;;;;;;;8.82;5.97;;;8.00;99.90;;;;;;5040854;28;20053;-57
2022/03/28 09:08:03;;;;;;;7.40;5.85;;;8.10;99.90;;;;;;5043146;28;20053;-56
2022/03/28 09:10:34;;;;;;;9.38;6.07;;;8.10;99.90;;;;;;5040937;28;20589;-56
2022/03/28 09:13:00;;;;;;;8.88;6.03;;;8.10;99.90;;;;;;5044016;28;20072;-56
2022/03/28 09:15:41;;;;;;;10.93;7.85;;;8.20;99.90;;;;;;5041081;28;20072;-57
2022/03/28 09:18:08;;;;;;;8.43;5.82;;;8.30;99.90;;;;;;5041665;28;20124;-57
2022/03/28 09:20:36;;;;;;;7.95;5.93;;;8.30;99.90;;;;;;5023720;28;20053;-57
2022/03/28 09:23:30;;;;;;;15.32;11.82;;;8.40;99.90;;;;;;5042148;28;20486;-56
2022/03/28 09:25:57;;;;;;;10.50;7.15;;;8.30;99.90;;;;;;5042022;28;20475;-56
2022/03/28 09:28:48;;;;;;;13.70;8.10;;;8.10;99.90;;;;;;5042701;28;20461;-56
2022/03/28 09:31:30;;;;;;;12.55;9.05;;;8.40;99.90;;;;;;5041039;28;20124;-56
2022/03/28 09:34:00;;;;;;;;;;;8.40;99.90;;;;;;5042007;28;20041;-56
2022/03/28 09:36:39;;;;;;;11.60;9.05;;;8.50;99.90;;;;;;5041078;28;19932;-56
2022/03/28 09:39:26;;;;;;;10.50;8.00;;;8.60;99.90;;;;;;5042528;28;20167;-57
2022/03/28 09:42:08;;;;;;;10.40;7.63;;;8.80;99.90;;;;;;5041828;28;20117;-56
2022/03/28 09:44:39;;;;;;;11.65;8.63;;;8.80;99.90;;;;;;5040682;28;20114;-57
2022/03/28 09:47:13;;;;;;;12.70;8.88;;;8.90;99.90;;;;;;5039949;28;20056;-57
2022/03/28 09:49:42;;;;;;;12.13;8.98;;;9.00;99.90;;;;;;5042250;28;20087;-56
2022/03/28 09:52:17;;;;;;;9.25;7.82;;;9.20;99.90;;;;;;5057641;28;20076;-56
2022/03/28 09:55:04;;;;;;;10.05;7.60;;;9.30;99.90;;;;;;5041591;28;20057;-56
2022/03/28 09:57:33;;;;;;;10.23;8.43;;;9.20;99.90;;;;;;5040253;28;20049;-57
2022/03/28 10:00:14;;;;;;;11.52;8.43;;;9.30;99.90;;;;;;5040427;28;20086;-57
2022/03/28 10:02:41;;;;;;;10.85;8.57;;;9.30;99.90;;;;;;5040754;28;20048;-56
2022/03/28 10:05:07;;;;;;;9.50;8.07;;;9.30;99.90;;;;;;5041178;28;20047;-55
2022/03/28 10:07:34;;;;;;;10.15;8.45;;;9.30;99.90;;;;;;5040141;28;20109;-56
2022/03/28 10:10:01;;;;;;;11.27;9.52;;;9.30;99.90;;;;;;5055718;28;20456;-55
2022/03/28 10:12:27;;;;;;;9.98;8.70;;;9.40;99.90;;;;;;5042083;28;20560;-56
2022/03/28 10:14:57;;;;;;;13.57;8.82;;;9.20;99.90;;;;;;5040083;28;20381;-56
2022/03/28 10:17:26;;;;;;;10.10;8.48;;;9.30;99.90;;;;;;5041960;28;20047;-56
2022/03/28 10:19:52;;;;;;;11.07;9.38;;;9.40;99.90;;;;;;5038454;28;20048;-56
2022/03/28 10:22:35;;;;;;;10.57;8.52;;;9.30;99.90;;;;;;5040820;28;20052;-56
2022/03/28 10:25:12;;;;;;;9.95;8.55;;;9.40;99.90;;;;;;5041462;28;20048;-56
2022/03/28 10:27:39;;;;;;;11.30;9.57;;;9.50;99.90;;;;;;5040781;28;20152;-56
2022/03/28 10:30:20;;;;;;;9.85;8.63;;;9.60;99.90;;;;;;5039996;28;20152;-56
2022/03/28 10:32:46;;;;;;;12.03;9.57;;;9.70;99.90;;;;;;5039979;28;20508;-57
2022/03/28 10:35:16;;;;;;;10.90;9.30;;;9.70;99.90;;;;;;5023100;28;20275;-58
2022/03/28 10:37:48;;;;;;;12.05;9.57;;;9.60;99.90;;;;;;5041095;28;20052;-57
2022/03/28 10:40:55;;;;;;;10.68;9.27;;;9.70;99.90;;;;;;5041705;28;20080;-57
2022/03/28 10:43:25;;;;;;;13.02;10.32;;;9.60;99.90;;;;;;5017633;28;20056;-57
2022/03/28 10:45:56;;;;;;;11.05;9.68;;;9.80;99.90;;;;;;5035533;28;20053;-57
2022/03/28 10:48:43;;;;;;;11.38;10.15;;;10.00;99.90;;;;;;5038342;28;20057;-57
2022/03/28 10:51:14;;;;;;;12.15;9.85;;;10.20;99.90;;;;;;5055001;28;20128;-57
2022/03/28 10:53:47;;;;;;;12.60;10.48;;;10.20;99.90;;;;;;5038801;28;20465;-57
2022/03/28 10:56:16;;;;;;;12.88;9.65;;;10.10;99.90;;;;;;5041490;28;20130;-56
2022/03/28 10:58:45;;;;;;;11.00;8.98;;;10.30;99.90;;;;;;5039335;28;20651;-57
2022/03/28 11:01:11;;;;;;;11.95;10.05;;;10.10;99.90;;;;;;5022637;28;20121;-57
2022/03/28 11:04:01;;;;;;;12.63;10.27;;;10.30;99.90;;;;;;5039519;28;21653;-57
2022/03/28 11:06:46;;;;;;;12.10;10.80;;;10.60;99.90;;;;;;5042107;28;20163;-57
2022/03/28 11:09:13;;;;;;;11.43;10.13;;;10.90;99.90;;;;;;5035134;28;20056;-57
2022/03/28 11:12:00;;;;;;;10.75;9.65;;;11.00;99.90;;;;;;5040329;28;20132;-57
2022/03/28 11:14:44;;;;;;;11.18;10.00;;;11.10;99.90;;;;;;5023505;28;20132;-58
2022/03/28 11:17:18;;;;;;;12.82;10.25;;;11.40;99.90;;;;;;5025314;28;20471;-56
2022/03/28 11:20:00;;;;;;;12.10;10.80;;;11.50;99.90;;;;;;5043873;28;20041;-56
2022/03/28 11:22:47;;;;;;;;;;;11.60;99.90;;;;;;5045249;28;20044;-56
2022/03/28 11:25:44;;;;;;;13.32;10.43;;;11.80;99.90;;;;;;5044392;28;19927;-56
2022/03/28 11:28:24;;;;;;;13.30;11.13;;;12.00;99.90;;;;;;5059492;28;20045;-57
2022/03/28 11:31:02;;;;;;;12.60;10.95;;;12.20;99.90;;;;;;5059294;28;20350;-57
2022/03/28 11:33:30;;;;;;;11.43;10.23;;;12.20;99.90;;;;;;5045300;28;20523;-57
2022/03/28 11:35:58;;;;;;;11.75;10.55;;;12.40;99.90;;;;;;5043926;28;20041;-57
2022/03/28 11:38:27;;;;;;;11.48;10.38;;;12.80;99.90;;;;;;5043331;28;20044;-57
2022/03/28 11:40:54;;;;;;;11.98;10.25;;;13.30;99.90;;;;;;5044144;28;20426;-57
2022/03/28 11:43:51;;;;;;;10.80;9.70;;;13.80;99.90;;;;;;5057950;28;20086;-56
2022/03/28 11:46:26;;;;;;;10.68;9.57;;;13.60;99.90;;;;;;5043946;28;20049;-57
2022/03/28 11:49:07;;;;;;;11.95;10.68;;;13.90;99.90;;;;;;5039392;28;20045;-57
2022/03/28 11:51:36;;;;;;;11.10;9.87;;;14.30;99.90;;;;;;5040841;28;20052;-56
2022/03/28 11:54:05;;;;;;;11.13;9.82;;;14.70;99.90;;;;;;5058388;28;20369;-58
2022/03/28 11:58:14;;;;;;;12.02;9.25;;;15.00;99.90;;;;;;5042198;28;20053;-58
2022/03/28 11:59:20;;;;;;;12.18;10.85;;;15.20;99.90;;;;;;5039092;28;20045;-58
2022/03/28 12:01:49;;;;;;;11.35;10.27;;;15.50;99.90;;;;;;5045612;28;20402;-58
2022/03/28 12:04:19;;;;;;;14.82;13.13;;;15.40;99.90;;;;;;5046096;28;20052;-58
2022/03/28 12:06:45;;;;;;;12.30;11.10;;;16.00;99.90;;;;;;5043636;28;20049;-58
2022/03/28 12:09:20;;;;;;;12.40;11.20;;;16.00;99.90;;;;;;5043167;28;20505;-59
2022/03/28 12:11:48;;;;;;;12.75;11.32;;;16.80;99.90;;;;;;5036426;28;20040;-58
2022/03/28 12:14:15;;;;;;;12.48;11.18;;;16.80;99.90;;;;;;5038432;28;20081;-59
2022/03/28 12:16:45;;;;;;;12.93;11.73;;;16.40;99.90;;;;;;5034020;28;20052;-59
2022/03/28 12:19:25;;;;;;;13.18;10.73;;;18.00;99.90;;;;;;5036474;28;20804;-59
2022/03/28 12:21:54;;;;;;;12.85;11.55;;;18.80;99.90;;;;;;5035965;28;20056;-59
2022/03/28 12:24:22;;;;;;;12.18;10.98;;;19.20;99.90;;;;;;5051811;28;20194;-59
2022/03/28 12:26:51;;;;;;;11.02;9.93;;;19.50;80.90;;;;;;5043625;28;20048;-59
2022/03/28 12:29:18;;;;;;;13.23;11.40;;;18.60;68.80;;;;;;5058758;28;20055;-59
2022/03/28 12:31:46;;;;;;;12.38;11.07;;;18.70;69.90;;;;;;5039715;28;20079;-59
2022/03/28 12:34:12;;;;;;;12.30;11.20;;;18.50;71.10;;;;;;5041985;28;20128;-59
2022/03/28 12:36:39;;;;;;;12.85;11.57;;;19.00;68.40;;;;;;5042467;28;20472;-59
2022/03/28 12:39:09;;;;;;;13.52;12.10;;;19.60;67.30;;;;;;5044972;28;20049;-59
2022/03/28 12:41:47;;;;;;;13.77;11.95;;;19.60;65.20;;;;;;5039968;28;20114;-59
2022/03/28 12:44:21;;;;;;;13.05;11.82;;;20.30;59.50;;;;;;5042796;28;20051;-59
2022/03/28 12:46:48;;;;;;;13.00;11.80;;;20.30;58.50;;;;;;5040699;28;20049;-56
2022/03/28 12:49:16;;;;;;;13.07;11.68;;;19.90;59.80;;;;;;5040478;28;20033;-56